sensor_id;sensor_type;location;lat;lon;timestamp;P1;durP1;ratioP1;P2;durP2;ratioP2
12784;SDS011;6456;42.680;23.260;2023-05-20T00:00:29;12.63;;;8.13;;
12784;SDS011;6456;42.680;23.260;2023-05-20T00:02:56;10.57;;;8.90;;
12784;SDS011;6456;42.680;23.260;2023-05-20T00:05:24;11.07;;;8.20;;
12784;SDS011;6456;42.680;23.260;2023-05-20T00:07:51;12.63;;;8.50;;
12784;SDS011;6456;42.680;23.260;2023-05-20T00:10:18;13.50;;;8.97;;
12784;SDS011;6456;42.680;23.260;2023-05-20T00:12:45;17.17;;;9.47;;
12784;SDS011;6456;42.680;23.260;2023-05-20T00:15:13;10.33;;;8.70;;
12784;SDS011;6456;42.680;23.260;2023-05-20T00:17:40;9.90;;;8.17;;
12784;SDS011;6456;42.680;23.260;2023-05-20T00:20:07;10.90;;;8.97;;
12784;SDS011;6456;42.680;23.260;2023-05-20T00:22:35;10.07;;;8.53;;
12784;SDS011;6456;42.680;23.260;2023-05-20T00:25:02;10.57;;;9.47;;
12784;SDS011;6456;42.680;23.260;2023-05-20T00:27:29;12.17;;;8.73;;
12784;SDS011;6456;42.680;23.260;2023-05-20T00:29:56;9.33;;;7.63;;
12784;SDS011;6456;42.680;23.260;2023-05-20T00:32:24;14.17;;;9.37;;
12784;SDS011;6456;42.680;23.260;2023-05-20T00:34:54;10.37;;;8.80;;
12784;SDS011;6456;42.680;23.260;2023-05-20T00:37:22;11.30;;;8.93;;
12784;SDS011;6456;42.680;23.260;2023-05-20T00:39:49;9.10;;;8.20;;
12784;SDS011;6456;42.680;23.260;2023-05-20T00:42:18;10.90;;;8.77;;
12784;SDS011;6456;42.680;23.260;2023-05-20T00:44:46;10.83;;;8.60;;
12784;SDS011;6456;42.680;23.260;2023-05-20T00:47:13;10.37;;;8.57;;
12784;SDS011;6456;42.680;23.260;2023-05-20T00:49:42;9.57;;;8.57;;
12784;SDS011;6456;42.680;23.260;2023-05-20T00:52:09;13.20;;;9.40;;
12784;SDS011;6456;42.680;23.260;2023-05-20T00:54:37;12.87;;;8.70;;
12784;SDS011;6456;42.680;23.260;2023-05-20T00:57:04;12.67;;;8.90;;
12784;SDS011;6456;42.680;23.260;2023-05-20T00:59:33;10.70;;;8.23;;
12784;SDS011;6456;42.680;23.260;2023-05-20T01:02:00;11.90;;;9.30;;
12784;SDS011;6456;42.680;23.260;2023-05-20T01:04:28;14.07;;;9.07;;
12784;SDS011;6456;42.680;23.260;2023-05-20T01:06:57;13.70;;;9.60;;
12784;SDS011;6456;42.680;23.260;2023-05-20T01:09:26;10.73;;;9.10;;
12784;SDS011;6456;42.680;23.260;2023-05-20T01:12:05;9.87;;;8.77;;
12784;SDS011;6456;42.680;23.260;2023-05-20T01:14:39;13.43;;;9.80;;
12784;SDS011;6456;42.680;23.260;2023-05-20T01:17:12;10.67;;;8.83;;
12784;SDS011;6456;42.680;23.260;2023-05-20T01:19:42;10.43;;;8.80;;
12784;SDS011;6456;42.680;23.260;2023-05-20T01:22:12;13.20;;;8.43;;
12784;SDS011;6456;42.680;23.260;2023-05-20T01:24:42;10.30;;;9.13;;
12784;SDS011;6456;42.680;23.260;2023-05-20T01:27:12;10.87;;;8.77;;
12784;SDS011;6456;42.680;23.260;2023-05-20T01:29:40;12.97;;;9.07;;
12784;SDS011;6456;42.680;23.260;2023-05-20T01:32:10;10.43;;;8.50;;
12784;SDS011;6456;42.680;23.260;2023-05-20T01:34:38;9.77;;;8.40;;
12784;SDS011;6456;42.680;23.260;2023-05-20T01:37:06;10.97;;;9.07;;
12784;SDS011;6456;42.680;23.260;2023-05-20T01:39:35;12.40;;;9.10;;
12784;SDS011;6456;42.680;23.260;2023-05-20T01:42:07;12.77;;;8.43;;
12784;SDS011;6456;42.680;23.260;2023-05-20T01:44:35;32.03;;;20.00;;
12784;SDS011;6456;42.680;23.260;2023-05-20T01:47:02;17.07;;;12.60;;
12784;SDS011;6456;42.680;23.260;2023-05-20T01:49:30;9.77;;;8.77;;
12784;SDS011;6456;42.680;23.260;2023-05-20T01:51:56;10.90;;;8.07;;
12784;SDS011;6456;42.680;23.260;2023-05-20T01:54:24;11.60;;;8.53;;
12784;SDS011;6456;42.680;23.260;2023-05-20T01:56:51;10.57;;;8.93;;
12784;SDS011;6456;42.680;23.260;2023-05-20T01:59:19;13.33;;;8.50;;
12784;SDS011;6456;42.680;23.260;2023-05-20T02:01:46;11.73;;;7.73;;
12784;SDS011;6456;42.680;23.260;2023-05-20T02:04:12;10.60;;;8.50;;
12784;SDS011;6456;42.680;23.260;2023-05-20T02:06:39;13.27;;;7.77;;
12784;SDS011;6456;42.680;23.260;2023-05-20T02:09:06;13.60;;;7.80;;
12784;SDS011;6456;42.680;23.260;2023-05-20T02:11:33;12.07;;;8.90;;
12784;SDS011;6456;42.680;23.260;2023-05-20T02:14:00;9.40;;;8.27;;
12784;SDS011;6456;42.680;23.260;2023-05-20T02:16:28;9.63;;;7.87;;
12784;SDS011;6456;42.680;23.260;2023-05-20T02:18:55;12.50;;;8.70;;
12784;SDS011;6456;42.680;23.260;2023-05-20T02:21:22;11.83;;;8.23;;
12784;SDS011;6456;42.680;23.260;2023-05-20T02:23:49;11.20;;;9.23;;
12784;SDS011;6456;42.680;23.260;2023-05-20T02:26:16;12.87;;;9.27;;
12784;SDS011;6456;42.680;23.260;2023-05-20T02:28:44;14.77;;;8.73;;
12784;SDS011;6456;42.680;23.260;2023-05-20T02:31:14;10.50;;;9.03;;
12784;SDS011;6456;42.680;23.260;2023-05-20T02:33:43;11.77;;;8.77;;
12784;SDS011;6456;42.680;23.260;2023-05-20T02:36:10;10.53;;;8.27;;
12784;SDS011;6456;42.680;23.260;2023-05-20T02:38:37;10.27;;;8.70;;
12784;SDS011;6456;42.680;23.260;2023-05-20T02:41:04;12.70;;;8.73;;
12784;SDS011;6456;42.680;23.260;2023-05-20T02:43:31;10.17;;;8.83;;
12784;SDS011;6456;42.680;23.260;2023-05-20T02:45:58;9.77;;;8.77;;
12784;SDS011;6456;42.680;23.260;2023-05-20T02:48:25;10.20;;;8.63;;
12784;SDS011;6456;42.680;23.260;2023-05-20T02:50:54;9.33;;;8.33;;
12784;SDS011;6456;42.680;23.260;2023-05-20T02:53:21;10.30;;;8.97;;
12784;SDS011;6456;42.680;23.260;2023-05-20T02:55:48;10.87;;;9.00;;
12784;SDS011;6456;42.680;23.260;2023-05-20T02:58:15;11.10;;;8.67;;
12784;SDS011;6456;42.680;23.260;2023-05-20T03:00:42;9.43;;;8.27;;
12784;SDS011;6456;42.680;23.260;2023-05-20T03:03:09;11.27;;;8.30;;
12784;SDS011;6456;42.680;23.260;2023-05-20T03:05:37;9.10;;;8.00;;
12784;SDS011;6456;42.680;23.260;2023-05-20T03:08:08;10.27;;;8.60;;
12784;SDS011;6456;42.680;23.260;2023-05-20T03:10:36;10.03;;;7.90;;
12784;SDS011;6456;42.680;23.260;2023-05-20T03:13:03;9.40;;;8.30;;
12784;SDS011;6456;42.680;23.260;2023-05-20T03:15:32;9.87;;;8.60;;
12784;SDS011;6456;42.680;23.260;2023-05-20T03:17:59;11.50;;;8.67;;
12784;SDS011;6456;42.680;23.260;2023-05-20T03:20:26;10.73;;;9.30;;
12784;SDS011;6456;42.680;23.260;2023-05-20T03:22:54;10.13;;;8.53;;
12784;SDS011;6456;42.680;23.260;2023-05-20T03:25:23;9.70;;;8.13;;
12784;SDS011;6456;42.680;23.260;2023-05-20T03:27:50;13.27;;;9.27;;
12784;SDS011;6456;42.680;23.260;2023-05-20T03:30:17;10.40;;;8.60;;
12784;SDS011;6456;42.680;23.260;2023-05-20T03:32:44;10.33;;;8.93;;
12784;SDS011;6456;42.680;23.260;2023-05-20T03:35:11;15.30;;;9.27;;
12784;SDS011;6456;42.680;23.260;2023-05-20T03:37:38;12.60;;;9.23;;
12784;SDS011;6456;42.680;23.260;2023-05-20T03:40:06;23.50;;;9.50;;
12784;SDS011;6456;42.680;23.260;2023-05-20T03:42:36;13.70;;;9.50;;
12784;SDS011;6456;42.680;23.260;2023-05-20T03:45:04;12.33;;;9.47;;
12784;SDS011;6456;42.680;23.260;2023-05-20T03:47:32;14.00;;;8.77;;
12784;SDS011;6456;42.680;23.260;2023-05-20T03:49:58;14.23;;;9.03;;
12784;SDS011;6456;42.680;23.260;2023-05-20T03:52:25;12.80;;;9.40;;
12784;SDS011;6456;42.680;23.260;2023-05-20T03:54:52;12.97;;;10.00;;
12784;SDS011;6456;42.680;23.260;2023-05-20T03:57:19;11.93;;;9.63;;
12784;SDS011;6456;42.680;23.260;2023-05-20T03:59:47;11.93;;;9.23;;
12784;SDS011;6456;42.680;23.260;2023-05-20T04:02:15;15.73;;;8.93;;
12784;SDS011;6456;42.680;23.260;2023-05-20T04:04:42;15.10;;;9.53;;
12784;SDS011;6456;42.680;23.260;2023-05-20T04:07:09;12.50;;;9.80;;
12784;SDS011;6456;42.680;23.260;2023-05-20T04:09:36;14.20;;;9.13;;
12784;SDS011;6456;42.680;23.260;2023-05-20T04:12:03;15.70;;;8.77;;
12784;SDS011;6456;42.680;23.260;2023-05-20T04:14:33;12.00;;;9.53;;
12784;SDS011;6456;42.680;23.260;2023-05-20T04:17:02;11.53;;;8.93;;
12784;SDS011;6456;42.680;23.260;2023-05-20T04:19:30;12.90;;;10.27;;
12784;SDS011;6456;42.680;23.260;2023-05-20T04:21:56;13.37;;;10.37;;
12784;SDS011;6456;42.680;23.260;2023-05-20T04:24:24;13.07;;;10.40;;
12784;SDS011;6456;42.680;23.260;2023-05-20T04:26:51;13.70;;;11.37;;
12784;SDS011;6456;42.680;23.260;2023-05-20T04:29:18;16.20;;;13.33;;
12784;SDS011;6456;42.680;23.260;2023-05-20T04:31:45;17.97;;;13.37;;
12784;SDS011;6456;42.680;23.260;2023-05-20T04:34:14;17.93;;;13.37;;
12784;SDS011;6456;42.680;23.260;2023-05-20T04:36:43;14.87;;;12.27;;
12784;SDS011;6456;42.680;23.260;2023-05-20T04:39:11;17.53;;;12.60;;
12784;SDS011;6456;42.680;23.260;2023-05-20T04:41:38;16.93;;;12.40;;
12784;SDS011;6456;42.680;23.260;2023-05-20T04:44:04;16.33;;;11.93;;
12784;SDS011;6456;42.680;23.260;2023-05-20T04:46:31;15.13;;;12.67;;
12784;SDS011;6456;42.680;23.260;2023-05-20T04:48:58;15.47;;;12.30;;
12784;SDS011;6456;42.680;23.260;2023-05-20T04:51:27;15.60;;;12.93;;
12784;SDS011;6456;42.680;23.260;2023-05-20T04:53:54;14.60;;;12.70;;
12784;SDS011;6456;42.680;23.260;2023-05-20T04:56:23;16.60;;;13.33;;
12784;SDS011;6456;42.680;23.260;2023-05-20T04:58:50;14.30;;;11.30;;
12784;SDS011;6456;42.680;23.260;2023-05-20T05:01:17;14.87;;;12.40;;
12784;SDS011;6456;42.680;23.260;2023-05-20T05:03:44;15.43;;;12.97;;
12784;SDS011;6456;42.680;23.260;2023-05-20T05:06:11;18.83;;;12.50;;
12784;SDS011;6456;42.680;23.260;2023-05-20T05:08:39;16.73;;;12.63;;
12784;SDS011;6456;42.680;23.260;2023-05-20T05:11:06;15.80;;;12.57;;
12784;SDS011;6456;42.680;23.260;2023-05-20T05:13:33;18.13;;;12.67;;
12784;SDS011;6456;42.680;23.260;2023-05-20T05:16:00;17.43;;;13.27;;
12784;SDS011;6456;42.680;23.260;2023-05-20T05:18:36;17.90;;;13.60;;
12784;SDS011;6456;42.680;23.260;2023-05-20T05:21:04;17.27;;;15.00;;
12784;SDS011;6456;42.680;23.260;2023-05-20T05:23:31;21.50;;;18.13;;
12784;SDS011;6456;42.680;23.260;2023-05-20T05:26:00;26.90;;;20.13;;
12784;SDS011;6456;42.680;23.260;2023-05-20T05:28:26;25.07;;;20.30;;
12784;SDS011;6456;42.680;23.260;2023-05-20T05:30:53;24.57;;;21.50;;
12784;SDS011;6456;42.680;23.260;2023-05-20T05:33:20;24.13;;;21.53;;
12784;SDS011;6456;42.680;23.260;2023-05-20T05:35:47;21.33;;;19.07;;
12784;SDS011;6456;42.680;23.260;2023-05-20T05:38:15;21.63;;;17.93;;
12784;SDS011;6456;42.680;23.260;2023-05-20T05:40:42;19.10;;;13.60;;
12784;SDS011;6456;42.680;23.260;2023-05-20T05:43:10;14.23;;;12.73;;
12784;SDS011;6456;42.680;23.260;2023-05-20T05:45:37;13.57;;;10.50;;
12784;SDS011;6456;42.680;23.260;2023-05-20T05:48:04;11.07;;;9.90;;
12784;SDS011;6456;42.680;23.260;2023-05-20T05:50:31;11.57;;;9.57;;
12784;SDS011;6456;42.680;23.260;2023-05-20T05:52:58;16.70;;;11.80;;
12784;SDS011;6456;42.680;23.260;2023-05-20T05:55:24;14.97;;;11.10;;
12784;SDS011;6456;42.680;23.260;2023-05-20T05:57:54;12.50;;;10.83;;
12784;SDS011;6456;42.680;23.260;2023-05-20T06:00:22;11.90;;;9.83;;
12784;SDS011;6456;42.680;23.260;2023-05-20T06:02:49;11.93;;;9.83;;
12784;SDS011;6456;42.680;23.260;2023-05-20T06:05:16;17.67;;;10.47;;
12784;SDS011;6456;42.680;23.260;2023-05-20T06:07:43;14.97;;;10.37;;
12784;SDS011;6456;42.680;23.260;2023-05-20T06:10:09;13.23;;;10.03;;
12784;SDS011;6456;42.680;23.260;2023-05-20T06:12:36;12.50;;;9.90;;
12784;SDS011;6456;42.680;23.260;2023-05-20T06:15:03;18.47;;;10.40;;
12784;SDS011;6456;42.680;23.260;2023-05-20T06:17:32;11.40;;;10.20;;
12784;SDS011;6456;42.680;23.260;2023-05-20T06:19:59;15.30;;;11.00;;
12784;SDS011;6456;42.680;23.260;2023-05-20T06:22:26;11.77;;;9.87;;
12784;SDS011;6456;42.680;23.260;2023-05-20T06:24:54;11.00;;;9.90;;
12784;SDS011;6456;42.680;23.260;2023-05-20T06:27:24;13.83;;;10.67;;
12784;SDS011;6456;42.680;23.260;2023-05-20T06:29:51;11.83;;;9.90;;
12784;SDS011;6456;42.680;23.260;2023-05-20T06:32:18;13.87;;;10.70;;
12784;SDS011;6456;42.680;23.260;2023-05-20T06:34:46;17.80;;;11.07;;
12784;SDS011;6456;42.680;23.260;2023-05-20T06:37:14;12.40;;;9.87;;
12784;SDS011;6456;42.680;23.260;2023-05-20T06:39:41;10.30;;;9.23;;
12784;SDS011;6456;42.680;23.260;2023-05-20T06:42:08;9.47;;;8.57;;
12784;SDS011;6456;42.680;23.260;2023-05-20T06:44:34;11.43;;;8.63;;
12784;SDS011;6456;42.680;23.260;2023-05-20T06:47:01;11.50;;;8.83;;
12784;SDS011;6456;42.680;23.260;2023-05-20T06:49:28;17.77;;;8.60;;
12784;SDS011;6456;42.680;23.260;2023-05-20T06:51:56;10.73;;;8.20;;
12784;SDS011;6456;42.680;23.260;2023-05-20T06:54:23;14.33;;;8.30;;
12784;SDS011;6456;42.680;23.260;2023-05-20T06:56:50;11.77;;;8.07;;
12784;SDS011;6456;42.680;23.260;2023-05-20T06:59:17;11.07;;;8.07;;
12784;SDS011;6456;42.680;23.260;2023-05-20T07:01:43;10.00;;;7.37;;
12784;SDS011;6456;42.680;23.260;2023-05-20T07:04:10;8.60;;;7.00;;
12784;SDS011;6456;42.680;23.260;2023-05-20T07:06:37;10.57;;;7.27;;
12784;SDS011;6456;42.680;23.260;2023-05-20T07:09:06;7.23;;;6.10;;
12784;SDS011;6456;42.680;23.260;2023-05-20T07:11:33;9.43;;;6.00;;
12784;SDS011;6456;42.680;23.260;2023-05-20T07:14:00;8.40;;;6.00;;
12784;SDS011;6456;42.680;23.260;2023-05-20T07:16:27;8.47;;;6.23;;
12784;SDS011;6456;42.680;23.260;2023-05-20T07:18:56;9.30;;;6.53;;
12784;SDS011;6456;42.680;23.260;2023-05-20T07:21:23;37.80;;;10.50;;
12784;SDS011;6456;42.680;23.260;2023-05-20T07:23:50;10.87;;;5.93;;
12784;SDS011;6456;42.680;23.260;2023-05-20T07:26:18;8.33;;;6.20;;
12784;SDS011;6456;42.680;23.260;2023-05-20T07:28:45;12.53;;;6.17;;
12784;SDS011;6456;42.680;23.260;2023-05-20T07:31:12;7.50;;;5.80;;
12784;SDS011;6456;42.680;23.260;2023-05-20T07:33:39;8.27;;;5.33;;
12784;SDS011;6456;42.680;23.260;2023-05-20T07:36:06;9.47;;;6.00;;
12784;SDS011;6456;42.680;23.260;2023-05-20T07:38:33;9.00;;;5.87;;
12784;SDS011;6456;42.680;23.260;2023-05-20T07:40:59;7.60;;;5.40;;
12784;SDS011;6456;42.680;23.260;2023-05-20T07:43:27;8.63;;;5.20;;
12784;SDS011;6456;42.680;23.260;2023-05-20T07:45:54;13.80;;;6.27;;
12784;SDS011;6456;42.680;23.260;2023-05-20T07:48:21;12.07;;;5.37;;
12784;SDS011;6456;42.680;23.260;2023-05-20T07:50:48;9.40;;;6.43;;
12784;SDS011;6456;42.680;23.260;2023-05-20T07:53:14;12.50;;;6.20;;
12784;SDS011;6456;42.680;23.260;2023-05-20T07:55:41;10.83;;;5.50;;
12784;SDS011;6456;42.680;23.260;2023-05-20T07:58:08;5.30;;;4.80;;
12784;SDS011;6456;42.680;23.260;2023-05-20T08:00:37;6.80;;;5.47;;
12784;SDS011;6456;42.680;23.260;2023-05-20T08:03:03;6.13;;;5.30;;
12784;SDS011;6456;42.680;23.260;2023-05-20T08:05:31;8.47;;;5.57;;
12784;SDS011;6456;42.680;23.260;2023-05-20T08:08:01;8.77;;;5.63;;
12784;SDS011;6456;42.680;23.260;2023-05-20T08:10:27;7.43;;;5.60;;
12784;SDS011;6456;42.680;23.260;2023-05-20T08:12:54;6.53;;;5.40;;
12784;SDS011;6456;42.680;23.260;2023-05-20T08:15:31;8.90;;;5.70;;
12784;SDS011;6456;42.680;23.260;2023-05-20T08:18:03;7.37;;;5.60;;
12784;SDS011;6456;42.680;23.260;2023-05-20T08:20:29;7.80;;;5.80;;
12784;SDS011;6456;42.680;23.260;2023-05-20T08:22:56;6.57;;;5.83;;
12784;SDS011;6456;42.680;23.260;2023-05-20T08:25:23;6.83;;;6.13;;
12784;SDS011;6456;42.680;23.260;2023-05-20T08:27:50;7.03;;;5.77;;
12784;SDS011;6456;42.680;23.260;2023-05-20T08:30:17;19.43;;;7.53;;
12784;SDS011;6456;42.680;23.260;2023-05-20T08:32:43;7.03;;;6.33;;
12784;SDS011;6456;42.680;23.260;2023-05-20T08:35:14;11.17;;;6.30;;
12784;SDS011;6456;42.680;23.260;2023-05-20T08:37:40;7.30;;;5.63;;
12784;SDS011;6456;42.680;23.260;2023-05-20T08:40:08;8.77;;;5.83;;
12784;SDS011;6456;42.680;23.260;2023-05-20T08:42:35;7.13;;;6.40;;
12784;SDS011;6456;42.680;23.260;2023-05-20T08:45:07;7.50;;;5.67;;
12784;SDS011;6456;42.680;23.260;2023-05-20T08:47:36;7.73;;;6.00;;
12784;SDS011;6456;42.680;23.260;2023-05-20T08:50:06;7.67;;;5.73;;
12784;SDS011;6456;42.680;23.260;2023-05-20T08:52:36;8.50;;;5.93;;
12784;SDS011;6456;42.680;23.260;2023-05-20T08:55:08;7.30;;;5.40;;
12784;SDS011;6456;42.680;23.260;2023-05-20T08:57:39;6.60;;;5.33;;
12784;SDS011;6456;42.680;23.260;2023-05-20T09:00:10;5.67;;;5.17;;
12784;SDS011;6456;42.680;23.260;2023-05-20T09:02:41;10.23;;;5.67;;
12784;SDS011;6456;42.680;23.260;2023-05-20T09:05:09;6.73;;;5.40;;
12784;SDS011;6456;42.680;23.260;2023-05-20T09:07:37;9.17;;;6.07;;
12784;SDS011;6456;42.680;23.260;2023-05-20T09:10:07;7.27;;;5.50;;
12784;SDS011;6456;42.680;23.260;2023-05-20T09:12:34;7.57;;;5.47;;
12784;SDS011;6456;42.680;23.260;2023-05-20T09:15:02;7.40;;;5.67;;
12784;SDS011;6456;42.680;23.260;2023-05-20T09:17:29;7.10;;;6.10;;
12784;SDS011;6456;42.680;23.260;2023-05-20T09:19:56;6.93;;;5.60;;
12784;SDS011;6456;42.680;23.260;2023-05-20T09:22:23;6.53;;;5.80;;
12784;SDS011;6456;42.680;23.260;2023-05-20T09:24:52;7.23;;;6.20;;
12784;SDS011;6456;42.680;23.260;2023-05-20T09:27:19;7.67;;;5.50;;
12784;SDS011;6456;42.680;23.260;2023-05-20T09:29:46;7.43;;;6.20;;
12784;SDS011;6456;42.680;23.260;2023-05-20T09:32:14;6.17;;;5.50;;
12784;SDS011;6456;42.680;23.260;2023-05-20T09:34:41;8.30;;;6.77;;
12784;SDS011;6456;42.680;23.260;2023-05-20T09:37:09;7.43;;;6.30;;
12784;SDS011;6456;42.680;23.260;2023-05-20T09:39:38;9.52;;;6.57;;
12784;SDS011;6456;42.680;23.260;2023-05-20T09:42:17;8.52;;;7.35;;
12784;SDS011;6456;42.680;23.260;2023-05-20T09:44:50;6.80;;;5.80;;
12784;SDS011;6456;42.680;23.260;2023-05-20T09:47:33;6.85;;;6.20;;
12784;SDS011;6456;42.680;23.260;2023-05-20T09:50:01;9.93;;;5.72;;
12784;SDS011;6456;42.680;23.260;2023-05-20T09:52:29;7.63;;;5.80;;
12784;SDS011;6456;42.680;23.260;2023-05-20T09:54:56;6.95;;;5.70;;
12784;SDS011;6456;42.680;23.260;2023-05-20T09:57:27;7.13;;;5.47;;
12784;SDS011;6456;42.680;23.260;2023-05-20T09:59:55;7.37;;;5.23;;
12784;SDS011;6456;42.680;23.260;2023-05-20T10:02:22;9.88;;;5.53;;
12784;SDS011;6456;42.680;23.260;2023-05-20T10:04:50;7.27;;;5.57;;
12784;SDS011;6456;42.680;23.260;2023-05-20T10:07:30;7.43;;;5.88;;
12784;SDS011;6456;42.680;23.260;2023-05-20T10:10:21;8.82;;;5.50;;
12784;SDS011;6456;42.680;23.260;2023-05-20T10:12:58;7.47;;;5.97;;
12784;SDS011;6456;42.680;23.260;2023-05-20T10:15:37;5.63;;;5.13;;
12784;SDS011;6456;42.680;23.260;2023-05-20T10:18:17;8.23;;;5.53;;
12784;SDS011;6456;42.680;23.260;2023-05-20T10:20:54;7.00;;;5.03;;
12784;SDS011;6456;42.680;23.260;2023-05-20T10:23:21;8.05;;;5.10;;
12784;SDS011;6456;42.680;23.260;2023-05-20T10:25:49;5.70;;;5.20;;
12784;SDS011;6456;42.680;23.260;2023-05-20T10:28:23;8.15;;;5.15;;
12784;SDS011;6456;42.680;23.260;2023-05-20T10:30:54;6.53;;;5.28;;
12784;SDS011;6456;42.680;23.260;2023-05-20T10:33:21;8.90;;;5.15;;
12784;SDS011;6456;42.680;23.260;2023-05-20T10:35:49;4.82;;;4.40;;
12784;SDS011;6456;42.680;23.260;2023-05-20T10:38:16;5.63;;;4.50;;
12784;SDS011;6456;42.680;23.260;2023-05-20T10:40:44;4.90;;;4.35;;
12784;SDS011;6456;42.680;23.260;2023-05-20T10:43:12;7.53;;;4.68;;
12784;SDS011;6456;42.680;23.260;2023-05-20T10:45:48;4.97;;;4.53;;
12784;SDS011;6456;42.680;23.260;2023-05-20T10:48:19;5.00;;;4.55;;
12784;SDS011;6456;42.680;23.260;2023-05-20T10:50:47;7.00;;;6.28;;
12784;SDS011;6456;42.680;23.260;2023-05-20T10:53:21;4.70;;;4.25;;
12784;SDS011;6456;42.680;23.260;2023-05-20T10:55:49;9.27;;;4.32;;
12784;SDS011;6456;42.680;23.260;2023-05-20T10:58:19;8.23;;;4.70;;
12784;SDS011;6456;42.680;23.260;2023-05-20T11:00:48;10.93;;;5.05;;
12784;SDS011;6456;42.680;23.260;2023-05-20T11:03:20;5.45;;;4.60;;
12784;SDS011;6456;42.680;23.260;2023-05-20T11:05:48;7.38;;;4.40;;
12784;SDS011;6456;42.680;23.260;2023-05-20T11:08:16;6.53;;;4.75;;
12784;SDS011;6456;42.680;23.260;2023-05-20T11:10:43;5.25;;;4.35;;
12784;SDS011;6456;42.680;23.260;2023-05-20T11:13:11;5.15;;;4.45;;
12784;SDS011;6456;42.680;23.260;2023-05-20T11:15:39;8.75;;;5.18;;
12784;SDS011;6456;42.680;23.260;2023-05-20T11:18:09;9.13;;;6.47;;
12784;SDS011;6456;42.680;23.260;2023-05-20T11:20:39;7.80;;;4.90;;
12784;SDS011;6456;42.680;23.260;2023-05-20T11:23:10;5.97;;;5.28;;
12784;SDS011;6456;42.680;23.260;2023-05-20T11:25:37;12.90;;;5.18;;
12784;SDS011;6456;42.680;23.260;2023-05-20T11:28:07;7.60;;;5.80;;
12784;SDS011;6456;42.680;23.260;2023-05-20T11:30:35;9.57;;;5.60;;
12784;SDS011;6456;42.680;23.260;2023-05-20T11:33:02;6.47;;;4.68;;
12784;SDS011;6456;42.680;23.260;2023-05-20T11:35:34;8.73;;;4.63;;
12784;SDS011;6456;42.680;23.260;2023-05-20T11:38:13;9.93;;;4.55;;
12784;SDS011;6456;42.680;23.260;2023-05-20T11:41:04;5.97;;;4.20;;
12784;SDS011;6456;42.680;23.260;2023-05-20T11:43:32;7.75;;;4.63;;
12784;SDS011;6456;42.680;23.260;2023-05-20T11:45:59;5.40;;;4.90;;
12784;SDS011;6456;42.680;23.260;2023-05-20T11:48:26;7.88;;;4.85;;
12784;SDS011;6456;42.680;23.260;2023-05-20T11:51:04;5.50;;;4.68;;
12784;SDS011;6456;42.680;23.260;2023-05-20T11:53:34;7.32;;;4.75;;
12784;SDS011;6456;42.680;23.260;2023-05-20T11:56:06;6.50;;;4.65;;
12784;SDS011;6456;42.680;23.260;2023-05-20T11:58:33;5.70;;;4.65;;
12784;SDS011;6456;42.680;23.260;2023-05-20T12:01:00;4.97;;;4.47;;
12784;SDS011;6456;42.680;23.260;2023-05-20T12:03:27;6.15;;;4.43;;
12784;SDS011;6456;42.680;23.260;2023-05-20T12:05:55;4.93;;;4.32;;
12784;SDS011;6456;42.680;23.260;2023-05-20T12:08:24;5.20;;;4.70;;
12784;SDS011;6456;42.680;23.260;2023-05-20T12:10:51;5.70;;;4.35;;
12784;SDS011;6456;42.680;23.260;2023-05-20T12:13:18;5.95;;;4.30;;
12784;SDS011;6456;42.680;23.260;2023-05-20T12:15:45;6.18;;;4.45;;
12784;SDS011;6456;42.680;23.260;2023-05-20T12:18:12;5.75;;;4.85;;
12784;SDS011;6456;42.680;23.260;2023-05-20T12:20:39;6.03;;;4.50;;
12784;SDS011;6456;42.680;23.260;2023-05-20T12:23:06;8.77;;;4.90;;
12784;SDS011;6456;42.680;23.260;2023-05-20T12:25:34;5.70;;;4.82;;
12784;SDS011;6456;42.680;23.260;2023-05-20T12:28:01;7.32;;;5.10;;
12784;SDS011;6456;42.680;23.260;2023-05-20T12:30:28;7.78;;;4.82;;
12784;SDS011;6456;42.680;23.260;2023-05-20T12:32:55;5.65;;;5.15;;
12784;SDS011;6456;42.680;23.260;2023-05-20T12:35:23;7.38;;;4.95;;
12784;SDS011;6456;42.680;23.260;2023-05-20T12:37:51;7.30;;;4.68;;
12784;SDS011;6456;42.680;23.260;2023-05-20T12:40:18;7.82;;;4.63;;
12784;SDS011;6456;42.680;23.260;2023-05-20T12:42:47;7.95;;;4.20;;
12784;SDS011;6456;42.680;23.260;2023-05-20T12:45:13;10.30;;;4.40;;
12784;SDS011;6456;42.680;23.260;2023-05-20T12:47:40;5.25;;;3.33;;
12784;SDS011;6456;42.680;23.260;2023-05-20T12:50:07;7.82;;;3.40;;
12784;SDS011;6456;42.680;23.260;2023-05-20T12:52:35;4.80;;;3.40;;
12784;SDS011;6456;42.680;23.260;2023-05-20T12:55:04;5.53;;;3.55;;
12784;SDS011;6456;42.680;23.260;2023-05-20T12:57:37;4.65;;;3.35;;
12784;SDS011;6456;42.680;23.260;2023-05-20T13:00:07;4.45;;;3.90;;
12784;SDS011;6456;42.680;23.260;2023-05-20T13:02:34;4.85;;;3.78;;
12784;SDS011;6456;42.680;23.260;2023-05-20T13:05:01;6.53;;;4.30;;
12784;SDS011;6456;42.680;23.260;2023-05-20T13:07:29;6.60;;;4.20;;
12784;SDS011;6456;42.680;23.260;2023-05-20T13:09:56;5.53;;;3.50;;
12784;SDS011;6456;42.680;23.260;2023-05-20T13:12:23;5.38;;;3.50;;
12784;SDS011;6456;42.680;23.260;2023-05-20T13:14:50;5.20;;;3.95;;
12784;SDS011;6456;42.680;23.260;2023-05-20T13:17:18;4.13;;;3.63;;
12784;SDS011;6456;42.680;23.260;2023-05-20T13:19:45;6.55;;;3.80;;
12784;SDS011;6456;42.680;23.260;2023-05-20T13:22:12;5.55;;;3.45;;
12784;SDS011;6456;42.680;23.260;2023-05-20T13:24:39;4.78;;;3.63;;
12784;SDS011;6456;42.680;23.260;2023-05-20T13:27:06;4.43;;;3.45;;
12784;SDS011;6456;42.680;23.260;2023-05-20T13:29:32;3.53;;;3.22;;
12784;SDS011;6456;42.680;23.260;2023-05-20T13:31:59;4.15;;;3.25;;
12784;SDS011;6456;42.680;23.260;2023-05-20T13:34:28;3.53;;;3.13;;
12784;SDS011;6456;42.680;23.260;2023-05-20T13:36:55;6.47;;;3.08;;
12784;SDS011;6456;42.680;23.260;2023-05-20T13:39:22;3.55;;;3.25;;
12784;SDS011;6456;42.680;23.260;2023-05-20T13:41:49;3.55;;;3.25;;
12784;SDS011;6456;42.680;23.260;2023-05-20T13:44:17;3.47;;;3.17;;
12784;SDS011;6456;42.680;23.260;2023-05-20T13:46:44;6.70;;;3.65;;
12784;SDS011;6456;42.680;23.260;2023-05-20T13:49:11;4.85;;;3.38;;
12784;SDS011;6456;42.680;23.260;2023-05-20T13:51:39;6.05;;;3.95;;
12784;SDS011;6456;42.680;23.260;2023-05-20T13:54:06;4.65;;;3.80;;
12784;SDS011;6456;42.680;23.260;2023-05-20T13:56:33;4.88;;;3.60;;
12784;SDS011;6456;42.680;23.260;2023-05-20T13:58:59;4.43;;;3.95;;
12784;SDS011;6456;42.680;23.260;2023-05-20T14:01:26;3.95;;;3.42;;
12784;SDS011;6456;42.680;23.260;2023-05-20T14:03:56;4.18;;;3.28;;
12784;SDS011;6456;42.680;23.260;2023-05-20T14:06:23;5.13;;;3.53;;
12784;SDS011;6456;42.680;23.260;2023-05-20T14:08:53;5.32;;;4.20;;
12784;SDS011;6456;42.680;23.260;2023-05-20T14:11:20;4.28;;;3.33;;
12784;SDS011;6456;42.680;23.260;2023-05-20T14:13:47;6.10;;;3.78;;
12784;SDS011;6456;42.680;23.260;2023-05-20T14:16:13;4.82;;;3.90;;
12784;SDS011;6456;42.680;23.260;2023-05-20T14:18:40;4.90;;;3.85;;
12784;SDS011;6456;42.680;23.260;2023-05-20T14:21:07;5.40;;;3.53;;
12784;SDS011;6456;42.680;23.260;2023-05-20T14:23:34;4.53;;;3.33;;
12784;SDS011;6456;42.680;23.260;2023-05-20T14:26:02;4.45;;;4.05;;
12784;SDS011;6456;42.680;23.260;2023-05-20T14:28:29;4.35;;;3.95;;
12784;SDS011;6456;42.680;23.260;2023-05-20T14:30:56;5.60;;;3.90;;
12784;SDS011;6456;42.680;23.260;2023-05-20T14:33:23;6.25;;;3.90;;
12784;SDS011;6456;42.680;23.260;2023-05-20T14:35:49;4.40;;;4.00;;
12784;SDS011;6456;42.680;23.260;2023-05-20T14:38:16;4.28;;;3.88;;
12784;SDS011;6456;42.680;23.260;2023-05-20T14:40:45;5.40;;;4.30;;
12784;SDS011;6456;42.680;23.260;2023-05-20T14:43:13;5.18;;;3.80;;
12784;SDS011;6456;42.680;23.260;2023-05-20T14:45:40;4.53;;;3.63;;